sensor_id;sensor_type;location;lat;lon;timestamp;temperature;humidity
68387;DHT22;55338;43.062;25.624;2023-04-16T00:01:03;10.40;99.90
68387;DHT22;55338;43.062;25.624;2023-04-16T00:03:28;10.30;99.90
68387;DHT22;55338;43.062;25.624;2023-04-16T00:05:54;10.30;99.90
68387;DHT22;55338;43.062;25.624;2023-04-16T00:08:21;10.30;99.90
68387;DHT22;55338;43.062;25.624;2023-04-16T00:10:52;10.20;99.90
68387;DHT22;55338;43.062;25.624;2023-04-16T00:13:18;10.30;99.90
68387;DHT22;55338;43.062;25.624;2023-04-16T00:15:43;10.20;99.90
68387;DHT22;55338;43.062;25.624;2023-04-16T00:18:09;10.20;99.90
68387;DHT22;55338;43.062;25.624;2023-04-16T00:20:35;10.20;99.90
68387;DHT22;55338;43.062;25.624;2023-04-16T00:23:01;10.20;99.90
68387;DHT22;55338;43.062;25.624;2023-04-16T00:25:26;10.20;99.90
68387;DHT22;55338;43.062;25.624;2023-04-16T00:27:52;10.20;99.90
68387;DHT22;55338;43.062;25.624;2023-04-16T00:30:18;10.30;99.90
68387;DHT22;55338;43.062;25.624;2023-04-16T00:32:43;10.20;99.90
68387;DHT22;55338;43.062;25.624;2023-04-16T00:35:09;10.20;99.90
68387;DHT22;55338;43.062;25.624;2023-04-16T00:37:35;10.20;99.90
68387;DHT22;55338;43.062;25.624;2023-04-16T00:40:01;10.20;99.90
68387;DHT22;55338;43.062;25.624;2023-04-16T00:42:27;10.20;99.90
68387;DHT22;55338;43.062;25.624;2023-04-16T00:44:52;10.20;99.90
68387;DHT22;55338;43.062;25.624;2023-04-16T00:47:19;10.30;99.90
68387;DHT22;55338;43.062;25.624;2023-04-16T00:49:45;10.20;99.90
68387;DHT22;55338;43.062;25.624;2023-04-16T00:52:11;10.30;99.90
68387;DHT22;55338;43.062;25.624;2023-04-16T00:54:38;10.30;99.90
68387;DHT22;55338;43.062;25.624;2023-04-16T00:57:04;10.30;99.90
68387;DHT22;55338;43.062;25.624;2023-04-16T00:59:31;10.30;99.90
68387;DHT22;55338;43.062;25.624;2023-04-16T01:01:57;10.30;99.90
68387;DHT22;55338;43.062;25.624;2023-04-16T01:04:23;10.40;99.90
68387;DHT22;55338;43.062;25.624;2023-04-16T01:06:49;10.40;99.90
68387;DHT22;55338;43.062;25.624;2023-04-16T01:09:16;10.40;99.90
68387;DHT22;55338;43.062;25.624;2023-04-16T01:11:42;10.40;99.90
68387;DHT22;55338;43.062;25.624;2023-04-16T01:14:07;10.30;99.90
68387;DHT22;55338;43.062;25.624;2023-04-16T01:16:33;10.20;99.90
68387;DHT22;55338;43.062;25.624;2023-04-16T01:18:59;10.20;99.90
68387;DHT22;55338;43.062;25.624;2023-04-16T01:21:24;10.20;99.90
68387;DHT22;55338;43.062;25.624;2023-04-16T01:23:51;10.10;99.90
68387;DHT22;55338;43.062;25.624;2023-04-16T01:26:16;10.10;99.90
68387;DHT22;55338;43.062;25.624;2023-04-16T01:28:42;10.10;99.90
68387;DHT22;55338;43.062;25.624;2023-04-16T01:31:08;10.00;99.90
68387;DHT22;55338;43.062;25.624;2023-04-16T01:33:33;10.00;99.90
68387;DHT22;55338;43.062;25.624;2023-04-16T01:35:59;10.00;99.90
68387;DHT22;55338;43.062;25.624;2023-04-16T01:38:25;10.00;99.90
68387;DHT22;55338;43.062;25.624;2023-04-16T01:40:57;10.00;99.90
68387;DHT22;55338;43.062;25.624;2023-04-16T01:43:24;10.00;99.90
68387;DHT22;55338;43.062;25.624;2023-04-16T01:45:50;9.90;99.90
68387;DHT22;55338;43.062;25.624;2023-04-16T01:48:16;9.90;99.90
68387;DHT22;55338;43.062;25.624;2023-04-16T01:50:42;9.80;99.90
68387;DHT22;55338;43.062;25.624;2023-04-16T01:53:08;9.80;99.90
68387;DHT22;55338;43.062;25.624;2023-04-16T01:55:34;9.70;99.90
68387;DHT22;55338;43.062;25.624;2023-04-16T01:58:00;9.70;99.90
68387;DHT22;55338;43.062;25.624;2023-04-16T02:00:25;9.70;99.90
68387;DHT22;55338;43.062;25.624;2023-04-16T02:02:51;9.70;99.90
68387;DHT22;55338;43.062;25.624;2023-04-16T02:05:17;9.70;99.90
68387;DHT22;55338;43.062;25.624;2023-04-16T02:07:43;9.60;99.90
68387;DHT22;55338;43.062;25.624;2023-04-16T02:10:09;9.60;99.90
68387;DHT22;55338;43.062;25.624;2023-04-16T02:12:34;9.60;99.90
68387;DHT22;55338;43.062;25.624;2023-04-16T02:15:01;9.60;99.90
68387;DHT22;55338;43.062;25.624;2023-04-16T02:17:27;9.60;99.90
68387;DHT22;55338;43.062;25.624;2023-04-16T02:19:53;9.50;99.90
68387;DHT22;55338;43.062;25.624;2023-04-16T02:22:19;9.40;99.90
68387;DHT22;55338;43.062;25.624;2023-04-16T02:24:45;9.30;99.90
68387;DHT22;55338;43.062;25.624;2023-04-16T02:27:10;9.30;99.90
68387;DHT22;55338;43.062;25.624;2023-04-16T02:29:36;9.30;99.90
68387;DHT22;55338;43.062;25.624;2023-04-16T02:32:02;9.20;99.90
68387;DHT22;55338;43.062;25.624;2023-04-16T02:34:28;9.20;99.90
68387;DHT22;55338;43.062;25.624;2023-04-16T02:36:53;9.20;99.90
68387;DHT22;55338;43.062;25.624;2023-04-16T02:39:19;9.20;99.90
68387;DHT22;55338;43.062;25.624;2023-04-16T02:41:46;9.20;99.90
68387;DHT22;55338;43.062;25.624;2023-04-16T02:44:12;9.20;99.90
68387;DHT22;55338;43.062;25.624;2023-04-16T02:46:38;9.10;99.90
68387;DHT22;55338;43.062;25.624;2023-04-16T02:49:03;9.20;99.90
68387;DHT22;55338;43.062;25.624;2023-04-16T02:51:29;9.20;99.90
68387;DHT22;55338;43.062;25.624;2023-04-16T02:53:55;9.10;99.90
68387;DHT22;55338;43.062;25.624;2023-04-16T02:56:21;9.20;99.90
68387;DHT22;55338;43.062;25.624;2023-04-16T02:58:46;9.10;99.90
68387;DHT22;55338;43.062;25.624;2023-04-16T03:01:12;9.10;99.90
68387;DHT22;55338;43.062;25.624;2023-04-16T03:03:38;9.10;99.90
68387;DHT22;55338;43.062;25.624;2023-04-16T03:06:03;9.10;99.90
68387;DHT22;55338;43.062;25.624;2023-04-16T03:08:29;9.10;99.90
68387;DHT22;55338;43.062;25.624;2023-04-16T03:10:55;9.10;99.90
68387;DHT22;55338;43.062;25.624;2023-04-16T03:13:21;9.10;99.90
68387;DHT22;55338;43.062;25.624;2023-04-16T03:15:48;9.10;99.90
68387;DHT22;55338;43.062;25.624;2023-04-16T03:18:14;9.10;99.90
68387;DHT22;55338;43.062;25.624;2023-04-16T03:20:40;9.10;99.90
68387;DHT22;55338;43.062;25.624;2023-04-16T03:23:06;9.10;99.90
68387;DHT22;55338;43.062;25.624;2023-04-16T03:25:32;9.10;99.90
68387;DHT22;55338;43.062;25.624;2023-04-16T03:27:57;9.00;99.90
68387;DHT22;55338;43.062;25.624;2023-04-16T03:30:23;9.10;99.90
68387;DHT22;55338;43.062;25.624;2023-04-16T03:32:49;9.10;99.90
68387;DHT22;55338;43.062;25.624;2023-04-16T03:35:15;9.10;99.90
68387;DHT22;55338;43.062;25.624;2023-04-16T03:37:40;9.10;99.90
68387;DHT22;55338;43.062;25.624;2023-04-16T03:40:06;9.10;99.90
68387;DHT22;55338;43.062;25.624;2023-04-16T03:42:32;9.10;99.90
68387;DHT22;55338;43.062;25.624;2023-04-16T03:44:58;9.10;99.90
68387;DHT22;55338;43.062;25.624;2023-04-16T03:47:25;9.10;99.90
68387;DHT22;55338;43.062;25.624;2023-04-16T03:49:50;9.20;99.90
68387;DHT22;55338;43.062;25.624;2023-04-16T03:52:16;9.20;99.90
68387;DHT22;55338;43.062;25.624;2023-04-16T03:54:42;9.10;99.90
68387;DHT22;55338;43.062;25.624;2023-04-16T03:57:08;9.20;99.90
68387;DHT22;55338;43.062;25.624;2023-04-16T03:59:33;9.20;99.90
68387;DHT22;55338;43.062;25.624;2023-04-16T04:01:59;9.30;99.90
68387;DHT22;55338;43.062;25.624;2023-04-16T04:04:25;9.40;99.90
68387;DHT22;55338;43.062;25.624;2023-04-16T04:06:50;9.50;99.90
68387;DHT22;55338;43.062;25.624;2023-04-16T04:09:16;9.50;99.90
68387;DHT22;55338;43.062;25.624;2023-04-16T04:11:42;9.60;99.90
68387;DHT22;55338;43.062;25.624;2023-04-16T04:14:08;9.70;99.90
68387;DHT22;55338;43.062;25.624;2023-04-16T04:16:34;9.70;99.90
68387;DHT22;55338;43.062;25.624;2023-04-16T04:19:00;9.80;99.90
68387;DHT22;55338;43.062;25.624;2023-04-16T04:21:27;9.80;99.90
68387;DHT22;55338;43.062;25.624;2023-04-16T04:23:53;9.90;99.90
68387;DHT22;55338;43.062;25.624;2023-04-16T04:26:19;10.00;99.90
68387;DHT22;55338;43.062;25.624;2023-04-16T04:28:45;10.10;99.90
68387;DHT22;55338;43.062;25.624;2023-04-16T04:31:12;10.20;99.90
68387;DHT22;55338;43.062;25.624;2023-04-16T04:33:37;10.30;99.90
68387;DHT22;55338;43.062;25.624;2023-04-16T04:36:03;10.30;99.90
68387;DHT22;55338;43.062;25.624;2023-04-16T04:38:29;10.40;99.90
68387;DHT22;55338;43.062;25.624;2023-04-16T04:40:56;10.40;99.90
68387;DHT22;55338;43.062;25.624;2023-04-16T04:43:22;10.60;99.90
68387;DHT22;55338;43.062;25.624;2023-04-16T04:45:48;10.60;99.90
68387;DHT22;55338;43.062;25.624;2023-04-16T04:48:14;10.70;99.90
68387;DHT22;55338;43.062;25.624;2023-04-16T04:50:41;10.90;99.90
68387;DHT22;55338;43.062;25.624;2023-04-16T04:53:07;11.00;99.90
68387;DHT22;55338;43.062;25.624;2023-04-16T04:55:38;11.10;99.90
68387;DHT22;55338;43.062;25.624;2023-04-16T04:58:05;11.20;99.90
68387;DHT22;55338;43.062;25.624;2023-04-16T05:00:34;11.30;99.90
68387;DHT22;55338;43.062;25.624;2023-04-16T05:03:02;11.40;99.90
68387;DHT22;55338;43.062;25.624;2023-04-16T05:05:28;11.50;99.90
68387;DHT22;55338;43.062;25.624;2023-04-16T05:07:53;11.60;99.90
68387;DHT22;55338;43.062;25.624;2023-04-16T05:10:19;11.70;99.90
68387;DHT22;55338;43.062;25.624;2023-04-16T05:12:46;11.90;99.90
68387;DHT22;55338;43.062;25.624;2023-04-16T05:15:13;12.00;99.90
68387;DHT22;55338;43.062;25.624;2023-04-16T05:17:39;12.10;99.90
68387;DHT22;55338;43.062;25.624;2023-04-16T05:20:06;12.30;99.90
68387;DHT22;55338;43.062;25.624;2023-04-16T05:22:32;12.30;99.90
68387;DHT22;55338;43.062;25.624;2023-04-16T05:24:58;12.40;99.90
68387;DHT22;55338;43.062;25.624;2023-04-16T05:27:24;12.50;99.90
68387;DHT22;55338;43.062;25.624;2023-04-16T05:29:49;12.60;99.90
68387;DHT22;55338;43.062;25.624;2023-04-16T05:32:15;12.70;99.90
68387;DHT22;55338;43.062;25.624;2023-04-16T05:34:41;12.90;99.90
68387;DHT22;55338;43.062;25.624;2023-04-16T05:37:06;13.00;99.90
68387;DHT22;55338;43.062;25.624;2023-04-16T05:39:32;13.20;99.90
68387;DHT22;55338;43.062;25.624;2023-04-16T05:41:58;13.40;99.90
68387;DHT22;55338;43.062;25.624;2023-04-16T05:44:24;13.70;99.90
68387;DHT22;55338;43.062;25.624;2023-04-16T05:46:50;13.90;99.90
68387;DHT22;55338;43.062;25.624;2023-04-16T05:49:16;14.20;99.90
68387;DHT22;55338;43.062;25.624;2023-04-16T05:51:43;14.40;99.90
68387;DHT22;55338;43.062;25.624;2023-04-16T05:54:09;14.60;99.90
68387;DHT22;55338;43.062;25.624;2023-04-16T05:56:34;14.80;99.90
68387;DHT22;55338;43.062;25.624;2023-04-16T05:59:00;15.00;99.90
68387;DHT22;55338;43.062;25.624;2023-04-16T06:01:26;15.10;99.40
68387;DHT22;55338;43.062;25.624;2023-04-16T06:03:52;15.30;98.90
68387;DHT22;55338;43.062;25.624;2023-04-16T06:06:17;15.50;97.60
68387;DHT22;55338;43.062;25.624;2023-04-16T06:08:43;15.60;96.50
68387;DHT22;55338;43.062;25.624;2023-04-16T06:11:09;16.00;96.30
68387;DHT22;55338;43.062;25.624;2023-04-16T06:13:35;16.30;94.30
68387;DHT22;55338;43.062;25.624;2023-04-16T06:16:01;16.90;91.90
68387;DHT22;55338;43.062;25.624;2023-04-16T06:18:27;17.20;89.10
68387;DHT22;55338;43.062;25.624;2023-04-16T06:20:53;17.70;87.60
68387;DHT22;55338;43.062;25.624;2023-04-16T06:23:20;18.10;84.10
68387;DHT22;55338;43.062;25.624;2023-04-16T06:25:45;18.50;82.00
68387;DHT22;55338;43.062;25.624;2023-04-16T06:28:11;18.70;79.40
68387;DHT22;55338;43.062;25.624;2023-04-16T06:30:38;18.80;77.80
68387;DHT22;55338;43.062;25.624;2023-04-16T06:33:04;18.90;77.10
68387;DHT22;55338;43.062;25.624;2023-04-16T06:35:30;19.00;74.70
68387;DHT22;55338;43.062;25.624;2023-04-16T06:37:55;19.00;75.20
68387;DHT22;55338;43.062;25.624;2023-04-16T06:40:21;19.10;72.90
68387;DHT22;55338;43.062;25.624;2023-04-16T06:42:47;19.20;71.30
68387;DHT22;55338;43.062;25.624;2023-04-16T06:45:13;19.40;71.40
68387;DHT22;55338;43.062;25.624;2023-04-16T06:47:38;19.60;69.20
68387;DHT22;55338;43.062;25.624;2023-04-16T06:50:05;19.70;68.70
68387;DHT22;55338;43.062;25.624;2023-04-16T06:52:31;19.90;67.80
68387;DHT22;55338;43.062;25.624;2023-04-16T06:54:57;19.30;67.10
68387;DHT22;55338;43.062;25.624;2023-04-16T06:57:23;20.10;66.30
68387;DHT22;55338;43.062;25.624;2023-04-16T06:59:49;20.50;64.20
68387;DHT22;55338;43.062;25.624;2023-04-16T07:02:14;20.90;61.40
68387;DHT22;55338;43.062;25.624;2023-04-16T07:04:40;21.10;62.00
68387;DHT22;55338;43.062;25.624;2023-04-16T07:07:07;21.50;60.10
68387;DHT22;55338;43.062;25.624;2023-04-16T07:09:32;21.90;60.00
68387;DHT22;55338;43.062;25.624;2023-04-16T07:11:58;22.00;58.80
68387;DHT22;55338;43.062;25.624;2023-04-16T07:14:24;21.70;59.50
68387;DHT22;55338;43.062;25.624;2023-04-16T07:16:50;21.60;60.40
68387;DHT22;55338;43.062;25.624;2023-04-16T07:19:15;21.30;61.50
68387;DHT22;55338;43.062;25.624;2023-04-16T07:21:41;21.00;61.70
68387;DHT22;55338;43.062;25.624;2023-04-16T07:24:09;20.80;62.10
68387;DHT22;55338;43.062;25.624;2023-04-16T07:26:36;20.60;64.10
68387;DHT22;55338;43.062;25.624;2023-04-16T07:29:02;20.10;64.80
68387;DHT22;55338;43.062;25.624;2023-04-16T07:31:27;19.70;66.70
68387;DHT22;55338;43.062;25.624;2023-04-16T07:33:54;19.40;67.30
68387;DHT22;55338;43.062;25.624;2023-04-16T07:36:19;19.30;69.20
68387;DHT22;55338;43.062;25.624;2023-04-16T07:38:45;19.00;69.50
68387;DHT22;55338;43.062;25.624;2023-04-16T07:41:12;18.90;71.00
68387;DHT22;55338;43.062;25.624;2023-04-16T07:43:38;19.10;71.20
68387;DHT22;55338;43.062;25.624;2023-04-16T07:46:03;19.10;70.90
68387;DHT22;55338;43.062;25.624;2023-04-16T07:48:30;19.30;70.70
68387;DHT22;55338;43.062;25.624;2023-04-16T07:50:56;19.40;70.20
68387;DHT22;55338;43.062;25.624;2023-04-16T07:53:22;19.30;70.80
68387;DHT22;55338;43.062;25.624;2023-04-16T07:55:48;19.70;69.50
68387;DHT22;55338;43.062;25.624;2023-04-16T07:58:14;19.80;68.40
68387;DHT22;55338;43.062;25.624;2023-04-16T08:00:39;19.90;67.80
68387;DHT22;55338;43.062;25.624;2023-04-16T08:03:05;20.30;68.10
68387;DHT22;55338;43.062;25.624;2023-04-16T08:05:31;20.60;66.60
68387;DHT22;55338;43.062;25.624;2023-04-16T08:07:56;20.90;67.20
68387;DHT22;55338;43.062;25.624;2023-04-16T08:10:22;20.80;65.60
68387;DHT22;55338;43.062;25.624;2023-04-16T08:12:48;21.60;64.00
68387;DHT22;55338;43.062;25.624;2023-04-16T08:15:13;22.80;60.90
68387;DHT22;55338;43.062;25.624;2023-04-16T08:17:39;22.90;60.60
68387;DHT22;55338;43.062;25.624;2023-04-16T08:20:05;23.70;58.80
68387;DHT22;55338;43.062;25.624;2023-04-16T08:22:32;23.70;57.60
68387;DHT22;55338;43.062;25.624;2023-04-16T08:24:58;23.90;56.70
68387;DHT22;55338;43.062;25.624;2023-04-16T08:27:23;24.50;56.40
68387;DHT22;55338;43.062;25.624;2023-04-16T08:29:49;24.70;54.70
68387;DHT22;55338;43.062;25.624;2023-04-16T08:32:15;24.90;53.90
68387;DHT22;55338;43.062;25.624;2023-04-16T08:34:41;25.10;51.70
68387;DHT22;55338;43.062;25.624;2023-04-16T08:37:07;24.10;54.50
68387;DHT22;55338;43.062;25.624;2023-04-16T08:39:33;23.90;55.00
68387;DHT22;55338;43.062;25.624;2023-04-16T08:42:01;23.30;56.00
68387;DHT22;55338;43.062;25.624;2023-04-16T08:44:34;22.80;57.20
68387;DHT22;55338;43.062;25.624;2023-04-16T08:47:02;22.40;58.60
68387;DHT22;55338;43.062;25.624;2023-04-16T08:49:28;22.10;59.70
68387;DHT22;55338;43.062;25.624;2023-04-16T08:51:55;22.10;59.60
68387;DHT22;55338;43.062;25.624;2023-04-16T08:54:37;21.70;60.00
68387;DHT22;55338;43.062;25.624;2023-04-16T08:57:05;21.70;59.30
68387;DHT22;55338;43.062;25.624;2023-04-16T08:59:33;23.00;58.70
68387;DHT22;55338;43.062;25.624;2023-04-16T09:01:59;23.80;53.60
68387;DHT22;55338;43.062;25.624;2023-04-16T09:04:26;25.10;52.70
68387;DHT22;55338;43.062;25.624;2023-04-16T09:06:55;26.50;52.00
68387;DHT22;55338;43.062;25.624;2023-04-16T09:09:22;26.80;46.70
68387;DHT22;55338;43.062;25.624;2023-04-16T09:11:51;26.00;48.00
68387;DHT22;55338;43.062;25.624;2023-04-16T09:14:17;25.70;48.60
68387;DHT22;55338;43.062;25.624;2023-04-16T09:16:45;24.50;51.10
68387;DHT22;55338;43.062;25.624;2023-04-16T09:19:15;25.40;49.20
68387;DHT22;55338;43.062;25.624;2023-04-16T09:21:42;26.30;47.30
68387;DHT22;55338;43.062;25.624;2023-04-16T09:24:10;25.50;48.40
68387;DHT22;55338;43.062;25.624;2023-04-16T09:26:36;24.80;49.10
68387;DHT22;55338;43.062;25.624;2023-04-16T09:29:02;23.40;52.30
68387;DHT22;55338;43.062;25.624;2023-04-16T09:31:28;22.40;54.10
68387;DHT22;55338;43.062;25.624;2023-04-16T09:34:05;22.40;55.10
68387;DHT22;55338;43.062;25.624;2023-04-16T09:36:31;23.00;54.10
68387;DHT22;55338;43.062;25.624;2023-04-16T09:38:58;23.90;52.50
68387;DHT22;55338;43.062;25.624;2023-04-16T09:41:29;24.40;52.50
68387;DHT22;55338;43.062;25.624;2023-04-16T09:43:59;25.20;50.50
68387;DHT22;55338;43.062;25.624;2023-04-16T09:46:30;25.20;50.20
68387;DHT22;55338;43.062;25.624;2023-04-16T09:48:56;24.50;51.30
68387;DHT22;55338;43.062;25.624;2023-04-16T09:51:22;23.30;52.00
68387;DHT22;55338;43.062;25.624;2023-04-16T09:53:55;23.00;53.00
68387;DHT22;55338;43.062;25.624;2023-04-16T09:56:24;22.70;55.20
68387;DHT22;55338;43.062;25.624;2023-04-16T09:58:55;22.60;55.80
68387;DHT22;55338;43.062;25.624;2023-04-16T10:01:23;22.60;55.80
68387;DHT22;55338;43.062;25.624;2023-04-16T10:03:48;22.60;55.00
68387;DHT22;55338;43.062;25.624;2023-04-16T10:06:19;22.90;53.00
68387;DHT22;55338;43.062;25.624;2023-04-16T10:08:49;23.20;54.20
68387;DHT22;55338;43.062;25.624;2023-04-16T10:11:16;23.60;53.10
68387;DHT22;55338;43.062;25.624;2023-04-16T10:13:42;23.90;51.50
68387;DHT22;55338;43.062;25.624;2023-04-16T10:16:08;23.80;50.40
68387;DHT22;55338;43.062;25.624;2023-04-16T10:18:36;23.40;49.30
68387;DHT22;55338;43.062;25.624;2023-04-16T10:21:03;23.00;49.40
68387;DHT22;55338;43.062;25.624;2023-04-16T10:23:29;23.00;50.20
68387;DHT22;55338;43.062;25.624;2023-04-16T10:25:57;22.70;50.10
68387;DHT22;55338;43.062;25.624;2023-04-16T10:28:24;23.20;49.30
68387;DHT22;55338;43.062;25.624;2023-04-16T10:30:51;23.60;48.50
68387;DHT22;55338;43.062;25.624;2023-04-16T10:33:25;23.70;48.60
68387;DHT22;55338;43.062;25.624;2023-04-16T10:35:52;24.00;47.90
68387;DHT22;55338;43.062;25.624;2023-04-16T10:38:31;24.10;47.10
68387;DHT22;55338;43.062;25.624;2023-04-16T10:41:05;24.70;46.50
68387;DHT22;55338;43.062;25.624;2023-04-16T10:43:37;25.40;44.90
68387;DHT22;55338;43.062;25.624;2023-04-16T10:46:30;25.30;44.70
68387;DHT22;55338;43.062;25.624;2023-04-16T10:49:00;24.90;45.30
68387;DHT22;55338;43.062;25.624;2023-04-16T10:51:29;24.30;46.90
68387;DHT22;55338;43.062;25.624;2023-04-16T10:56:34;24.30;46.60
68387;DHT22;55338;43.062;25.624;2023-04-16T10:59:03;24.50;47.90
68387;DHT22;55338;43.062;25.624;2023-04-16T11:01:34;24.40;46.30
68387;DHT22;55338;43.062;25.624;2023-04-16T11:09:49;22.90;48.30
68387;DHT22;55338;43.062;25.624;2023-04-16T11:12:17;23.20;49.20
68387;DHT22;55338;43.062;25.624;2023-04-16T11:14:52;23.20;48.80
68387;DHT22;55338;43.062;25.624;2023-04-16T11:17:19;23.10;48.70
68387;DHT22;55338;43.062;25.624;2023-04-16T11:19:45;23.00;47.50
68387;DHT22;55338;43.062;25.624;2023-04-16T11:22:13;23.00;48.30
68387;DHT22;55338;43.062;25.624;2023-04-16T11:24:40;22.90;48.50
68387;DHT22;55338;43.062;25.624;2023-04-16T11:27:10;22.70;50.20
68387;DHT22;55338;43.062;25.624;2023-04-16T11:29:36;23.00;48.90
68387;DHT22;55338;43.062;25.624;2023-04-16T11:32:02;22.90;50.80
68387;DHT22;55338;43.062;25.624;2023-04-16T11:34:27;22.70;50.60
68387;DHT22;55338;43.062;25.624;2023-04-16T11:36:53;22.30;51.80
68387;DHT22;55338;43.062;25.624;2023-04-16T11:39:19;22.20;51.30
68387;DHT22;55338;43.062;25.624;2023-04-16T11:41:46;22.20;51.50
68387;DHT22;55338;43.062;25.624;2023-04-16T11:44:25;22.40;51.70
68387;DHT22;55338;43.062;25.624;2023-04-16T11:46:53;22.70;51.40
68387;DHT22;55338;43.062;25.624;2023-04-16T11:49:31;23.00;49.90
68387;DHT22;55338;43.062;25.624;2023-04-16T11:51:57;23.10;49.20
68387;DHT22;55338;43.062;25.624;2023-04-16T11:54:24;23.20;47.90
68387;DHT22;55338;43.062;25.624;2023-04-16T11:56:51;23.00;48.00
68387;DHT22;55338;43.062;25.624;2023-04-16T11:59:22;23.00;49.10
68387;DHT22;55338;43.062;25.624;2023-04-16T12:01:50;23.20;48.70
68387;DHT22;55338;43.062;25.624;2023-04-16T12:04:19;23.50;46.80
68387;DHT22;55338;43.062;25.624;2023-04-16T12:09:33;23.50;46.80
68387;DHT22;55338;43.062;25.624;2023-04-16T12:12:02;23.40;45.80
68387;DHT22;55338;43.062;25.624;2023-04-16T12:14:29;23.70;46.00
68387;DHT22;55338;43.062;25.624;2023-04-16T12:16:56;23.50;46.80
68387;DHT22;55338;43.062;25.624;2023-04-16T12:19:22;23.50;47.30
68387;DHT22;55338;43.062;25.624;2023-04-16T12:21:49;23.60;46.80
68387;DHT22;55338;43.062;25.624;2023-04-16T12:24:18;23.70;47.60
68387;DHT22;55338;43.062;25.624;2023-04-16T12:26:45;23.60;47.90
68387;DHT22;55338;43.062;25.624;2023-04-16T12:29:31;23.80;47.10
68387;DHT22;55338;43.062;25.624;2023-04-16T12:31:57;24.00;46.80
68387;DHT22;55338;43.062;25.624;2023-04-16T12:34:22;24.00;45.80
68387;DHT22;55338;43.062;25.624;2023-04-16T12:37:04;24.00;46.90
68387;DHT22;55338;43.062;25.624;2023-04-16T12:39:30;24.30;46.50
68387;DHT22;55338;43.062;25.624;2023-04-16T12:41:56;24.90;45.60
68387;DHT22;55338;43.062;25.624;2023-04-16T12:44:22;24.90;44.80
68387;DHT22;55338;43.062;25.624;2023-04-16T12:46:47;24.70;44.30
68387;DHT22;55338;43.062;25.624;2023-04-16T12:49:13;25.10;45.60
68387;DHT22;55338;43.062;25.624;2023-04-16T12:51:39;25.20;45.60
68387;DHT22;55338;43.062;25.624;2023-04-16T12:54:05;25.10;44.10
68387;DHT22;55338;43.062;25.624;2023-04-16T12:56:34;25.40;43.60
68387;DHT22;55338;43.062;25.624;2023-04-16T12:59:01;25.10;43.90
68387;DHT22;55338;43.062;25.624;2023-04-16T13:01:26;25.20;44.40
68387;DHT22;55338;43.062;25.624;2023-04-16T13:03:52;24.90;44.80
68387;DHT22;55338;43.062;25.624;2023-04-16T13:06:19;25.00;43.90
68387;DHT22;55338;43.062;25.624;2023-04-16T13:08:45;24.60;43.80
68387;DHT22;55338;43.062;25.624;2023-04-16T13:11:11;24.00;44.60
68387;DHT22;55338;43.062;25.624;2023-04-16T13:13:37;24.20;45.30
68387;DHT22;55338;43.062;25.624;2023-04-16T13:16:03;25.00;43.00
68387;DHT22;55338;43.062;25.624;2023-04-16T13:18:31;25.40;43.20
68387;DHT22;55338;43.062;25.624;2023-04-16T13:20:57;25.30;42.50
68387;DHT22;55338;43.062;25.624;2023-04-16T13:23:23;24.90;42.20
68387;DHT22;55338;43.062;25.624;2023-04-16T13:25:49;24.80;43.10
68387;DHT22;55338;43.062;25.624;2023-04-16T13:28:15;24.40;45.00
68387;DHT22;55338;43.062;25.624;2023-04-16T13:30:41;24.60;43.20
68387;DHT22;55338;43.062;25.624;2023-04-16T13:33:07;24.20;44.60
68387;DHT22;55338;43.062;25.624;2023-04-16T13:35:33;24.90;42.30
68387;DHT22;55338;43.062;25.624;2023-04-16T13:38:00;25.40;41.00
68387;DHT22;55338;43.062;25.624;2023-04-16T13:40:25;25.30;40.50
68387;DHT22;55338;43.062;25.624;2023-04-16T13:42:51;24.20;43.50
68387;DHT22;55338;43.062;25.624;2023-04-16T13:45:17;24.10;45.20
68387;DHT22;55338;43.062;25.624;2023-04-16T13:47:44;24.60;44.80
68387;DHT22;55338;43.062;25.624;2023-04-16T13:50:10;24.10;45.90
68387;DHT22;55338;43.062;25.624;2023-04-16T13:52:36;24.60;44.70
68387;DHT22;55338;43.062;25.624;2023-04-16T13:55:02;23.70;46.60
68387;DHT22;55338;43.062;25.624;2023-04-16T13:57:28;23.90;45.50
68387;DHT22;55338;43.062;25.624;2023-04-16T13:59:54;24.30;46.20
68387;DHT22;55338;43.062;25.624;2023-04-16T14:02:21;24.30;43.60
68387;DHT22;55338;43.062;25.624;2023-04-16T14:04:47;25.00;43.00
68387;DHT22;55338;43.062;25.624;2023-04-16T14:07:13;25.40;41.70
68387;DHT22;55338;43.062;25.624;2023-04-16T14:09:39;25.40;43.00
68387;DHT22;55338;43.062;25.624;2023-04-16T14:12:05;25.50;42.70
68387;DHT22;55338;43.062;25.624;2023-04-16T14:14:31;24.30;43.10
68387;DHT22;55338;43.062;25.624;2023-04-16T14:16:57;24.20;44.30
68387;DHT22;55338;43.062;25.624;2023-04-16T14:19:23;24.00;45.40
68387;DHT22;55338;43.062;25.624;2023-04-16T14:21:49;23.40;45.90
68387;DHT22;55338;43.062;25.624;2023-04-16T14:24:15;23.00;47.80
68387;DHT22;55338;43.062;25.624;2023-04-16T14:26:42;22.60;49.10
68387;DHT22;55338;43.062;25.624;2023-04-16T14:29:08;22.20;50.00
68387;DHT22;55338;43.062;25.624;2023-04-16T14:31:34;22.00;50.90
68387;DHT22;55338;43.062;25.624;2023-04-16T14:34:00;21.70;51.40
68387;DHT22;55338;43.062;25.624;2023-04-16T14:36:26;21.50;52.40
68387;DHT22;55338;43.062;25.624;2023-04-16T14:38:52;21.50;52.40
68387;DHT22;55338;43.062;25.624;2023-04-16T14:41:18;21.10;52.50
68387;DHT22;55338;43.062;25.624;2023-04-16T14:43:43;21.00;53.20
68387;DHT22;55338;43.062;25.624;2023-04-16T14:46:09;21.00;53.40
68387;DHT22;55338;43.062;25.624;2023-04-16T14:48:35;21.00;53.50
68387;DHT22;55338;43.062;25.624;2023-04-16T14:51:01;21.00;53.70
68387;DHT22;55338;43.062;25.624;2023-04-16T14:53:27;20.90;53.40
68387;DHT22;55338;43.062;25.624;2023-04-16T14:55:53;20.80;53.70
68387;DHT22;55338;43.062;25.624;2023-04-16T14:58:22;21.00;54.50
68387;DHT22;55338;43.062;25.624;2023-04-16T15:00:48;21.00;53.80
68387;DHT22;55338;43.062;25.624;2023-04-16T15:03:14;21.10;54.40
68387;DHT22;55338;43.062;25.624;2023-04-16T15:05:40;21.00;53.80
68387;DHT22;55338;43.062;25.624;2023-04-16T15:08:06;20.90;53.80
68387;DHT22;55338;43.062;25.624;2023-04-16T15:10:31;20.90;54.40
68387;DHT22;55338;43.062;25.624;2023-04-16T15:12:57;20.90;54.10
68387;DHT22;55338;43.062;25.624;2023-04-16T15:15:23;20.90;54.60
68387;DHT22;55338;43.062;25.624;2023-04-16T15:17:49;21.00;53.80
68387;DHT22;55338;43.062;25.624;2023-04-16T15:20:16;21.10;53.90
68387;DHT22;55338;43.062;25.624;2023-04-16T15:22:42;20.90;53.90
68387;DHT22;55338;43.062;25.624;2023-04-16T15:25:08;20.90;54.30